sensor_id;sensor_type;location;lat;lon;timestamp;temperature;humidity
36716;DHT22;22699;51.034;3.730;2023-04-24T00:01:01;10.30;99.90
36716;DHT22;22699;51.034;3.730;2023-04-24T00:03:30;10.40;99.90
36716;DHT22;22699;51.034;3.730;2023-04-24T00:05:58;10.70;99.90
36716;DHT22;22699;51.034;3.730;2023-04-24T00:08:26;10.30;99.90
36716;DHT22;22699;51.034;3.730;2023-04-24T00:10:54;10.40;99.90
36716;DHT22;22699;51.034;3.730;2023-04-24T00:13:20;10.30;99.90
36716;DHT22;22699;51.034;3.730;2023-04-24T00:15:46;10.30;99.90
36716;DHT22;22699;51.034;3.730;2023-04-24T00:18:12;10.20;99.90
36716;DHT22;22699;51.034;3.730;2023-04-24T00:20:38;10.20;99.90
36716;DHT22;22699;51.034;3.730;2023-04-24T00:23:07;10.30;99.90
36716;DHT22;22699;51.034;3.730;2023-04-24T00:25:39;10.30;99.90
36716;DHT22;22699;51.034;3.730;2023-04-24T00:28:05;10.50;99.90
36716;DHT22;22699;51.034;3.730;2023-04-24T00:30:31;10.60;99.90
36716;DHT22;22699;51.034;3.730;2023-04-24T00:32:57;10.50;99.90
36716;DHT22;22699;51.034;3.730;2023-04-24T00:35:25;10.50;99.90
36716;DHT22;22699;51.034;3.730;2023-04-24T00:37:54;10.40;99.90
36716;DHT22;22699;51.034;3.730;2023-04-24T00:40:23;10.40;99.90
36716;DHT22;22699;51.034;3.730;2023-04-24T00:42:52;10.30;99.90
36716;DHT22;22699;51.034;3.730;2023-04-24T00:45:17;10.30;99.90
36716;DHT22;22699;51.034;3.730;2023-04-24T00:47:43;10.10;99.90
36716;DHT22;22699;51.034;3.730;2023-04-24T00:50:10;10.10;99.90
36716;DHT22;22699;51.034;3.730;2023-04-24T00:52:40;10.20;99.90
36716;DHT22;22699;51.034;3.730;2023-04-24T00:55:06;10.30;99.90
36716;DHT22;22699;51.034;3.730;2023-04-24T00:57:33;10.30;99.90
36716;DHT22;22699;51.034;3.730;2023-04-24T01:00:00;10.30;99.90
36716;DHT22;22699;51.034;3.730;2023-04-24T01:02:32;10.50;99.90
36716;DHT22;22699;51.034;3.730;2023-04-24T01:05:01;10.30;99.90
36716;DHT22;22699;51.034;3.730;2023-04-24T01:07:30;10.20;99.90
36716;DHT22;22699;51.034;3.730;2023-04-24T01:09:58;10.20;99.90
36716;DHT22;22699;51.034;3.730;2023-04-24T01:12:30;10.20;99.90
36716;DHT22;22699;51.034;3.730;2023-04-24T01:14:56;10.10;99.90
36716;DHT22;22699;51.034;3.730;2023-04-24T01:17:22;10.00;99.90
36716;DHT22;22699;51.034;3.730;2023-04-24T01:19:48;10.10;99.90
36716;DHT22;22699;51.034;3.730;2023-04-24T01:22:14;10.00;99.90
36716;DHT22;22699;51.034;3.730;2023-04-24T01:24:41;10.10;99.90
36716;DHT22;22699;51.034;3.730;2023-04-24T01:27:07;10.00;99.90
36716;DHT22;22699;51.034;3.730;2023-04-24T01:29:34;10.00;99.90
36716;DHT22;22699;51.034;3.730;2023-04-24T01:32:00;10.00;99.90
36716;DHT22;22699;51.034;3.730;2023-04-24T01:34:26;9.90;99.90
36716;DHT22;22699;51.034;3.730;2023-04-24T01:36:52;9.90;99.90
36716;DHT22;22699;51.034;3.730;2023-04-24T01:39:18;9.90;99.90
36716;DHT22;22699;51.034;3.730;2023-04-24T01:41:46;9.80;99.90
36716;DHT22;22699;51.034;3.730;2023-04-24T01:44:12;9.90;99.90
36716;DHT22;22699;51.034;3.730;2023-04-24T01:46:38;9.90;99.90
36716;DHT22;22699;51.034;3.730;2023-04-24T01:49:04;9.90;99.90
36716;DHT22;22699;51.034;3.730;2023-04-24T01:51:29;9.80;99.90
36716;DHT22;22699;51.034;3.730;2023-04-24T01:53:55;9.90;99.90
36716;DHT22;22699;51.034;3.730;2023-04-24T01:56:22;9.80;99.90
36716;DHT22;22699;51.034;3.730;2023-04-24T01:58:49;9.70;99.90
36716;DHT22;22699;51.034;3.730;2023-04-24T02:01:19;9.70;99.90
36716;DHT22;22699;51.034;3.730;2023-04-24T02:03:45;9.70;99.90
36716;DHT22;22699;51.034;3.730;2023-04-24T02:06:11;9.70;99.90
36716;DHT22;22699;51.034;3.730;2023-04-24T02:08:36;9.80;99.90
36716;DHT22;22699;51.034;3.730;2023-04-24T02:11:02;9.80;99.90
36716;DHT22;22699;51.034;3.730;2023-04-24T02:13:28;9.70;99.90
36716;DHT22;22699;51.034;3.730;2023-04-24T02:15:54;9.70;99.90
36716;DHT22;22699;51.034;3.730;2023-04-24T02:18:19;9.80;99.90
36716;DHT22;22699;51.034;3.730;2023-04-24T02:20:46;9.70;99.90
36716;DHT22;22699;51.034;3.730;2023-04-24T02:23:11;9.70;99.90
36716;DHT22;22699;51.034;3.730;2023-04-24T02:25:38;9.60;99.90
36716;DHT22;22699;51.034;3.730;2023-04-24T02:28:04;9.70;99.90
36716;DHT22;22699;51.034;3.730;2023-04-24T02:30:30;9.70;99.90
36716;DHT22;22699;51.034;3.730;2023-04-24T02:32:56;9.70;99.90
36716;DHT22;22699;51.034;3.730;2023-04-24T02:35:22;9.60;99.90
36716;DHT22;22699;51.034;3.730;2023-04-24T02:37:47;9.60;99.90
36716;DHT22;22699;51.034;3.730;2023-04-24T02:40:14;9.70;99.90
36716;DHT22;22699;51.034;3.730;2023-04-24T02:42:40;9.70;99.90
36716;DHT22;22699;51.034;3.730;2023-04-24T02:45:06;9.90;99.90
36716;DHT22;22699;51.034;3.730;2023-04-24T02:47:33;10.10;99.90
36716;DHT22;22699;51.034;3.730;2023-04-24T02:49:58;10.30;99.90
36716;DHT22;22699;51.034;3.730;2023-04-24T02:52:24;10.30;99.90
36716;DHT22;22699;51.034;3.730;2023-04-24T02:54:50;10.60;99.90
36716;DHT22;22699;51.034;3.730;2023-04-24T02:57:15;10.50;99.90
36716;DHT22;22699;51.034;3.730;2023-04-24T02:59:41;10.60;99.90
36716;DHT22;22699;51.034;3.730;2023-04-24T03:02:07;10.60;99.90
36716;DHT22;22699;51.034;3.730;2023-04-24T03:04:32;10.90;99.90
36716;DHT22;22699;51.034;3.730;2023-04-24T03:06:58;10.70;99.90
36716;DHT22;22699;51.034;3.730;2023-04-24T03:09:24;10.70;99.90
36716;DHT22;22699;51.034;3.730;2023-04-24T03:11:52;10.90;99.90
36716;DHT22;22699;51.034;3.730;2023-04-24T03:14:18;10.80;99.90
36716;DHT22;22699;51.034;3.730;2023-04-24T03:16:43;10.90;99.90
36716;DHT22;22699;51.034;3.730;2023-04-24T03:19:09;10.70;99.90
36716;DHT22;22699;51.034;3.730;2023-04-24T03:21:35;10.70;99.90
36716;DHT22;22699;51.034;3.730;2023-04-24T03:24:07;10.70;99.90
36716;DHT22;22699;51.034;3.730;2023-04-24T03:26:32;10.60;99.90
36716;DHT22;22699;51.034;3.730;2023-04-24T03:28:58;10.70;99.90
36716;DHT22;22699;51.034;3.730;2023-04-24T03:31:24;11.10;99.90
36716;DHT22;22699;51.034;3.730;2023-04-24T03:33:50;10.70;99.90
36716;DHT22;22699;51.034;3.730;2023-04-24T03:36:16;10.70;99.90
36716;DHT22;22699;51.034;3.730;2023-04-24T03:38:42;10.80;99.90
36716;DHT22;22699;51.034;3.730;2023-04-24T03:41:08;10.70;99.90
36716;DHT22;22699;51.034;3.730;2023-04-24T03:43:34;10.70;99.90
36716;DHT22;22699;51.034;3.730;2023-04-24T03:46:00;10.80;99.90
36716;DHT22;22699;51.034;3.730;2023-04-24T03:48:25;10.60;99.90
36716;DHT22;22699;51.034;3.730;2023-04-24T03:50:51;10.50;99.90
36716;DHT22;22699;51.034;3.730;2023-04-24T03:53:17;10.50;99.90
36716;DHT22;22699;51.034;3.730;2023-04-24T03:55:43;10.50;99.90
36716;DHT22;22699;51.034;3.730;2023-04-24T03:58:09;10.50;99.90
36716;DHT22;22699;51.034;3.730;2023-04-24T04:00:37;10.60;99.90
36716;DHT22;22699;51.034;3.730;2023-04-24T04:03:03;10.50;99.90
36716;DHT22;22699;51.034;3.730;2023-04-24T04:05:29;10.70;99.90
36716;DHT22;22699;51.034;3.730;2023-04-24T04:07:56;10.50;99.90
36716;DHT22;22699;51.034;3.730;2023-04-24T04:10:21;10.50;99.90
36716;DHT22;22699;51.034;3.730;2023-04-24T04:12:47;10.50;99.90
36716;DHT22;22699;51.034;3.730;2023-04-24T04:15:13;10.50;99.90
36716;DHT22;22699;51.034;3.730;2023-04-24T04:17:38;10.50;99.90
36716;DHT22;22699;51.034;3.730;2023-04-24T04:20:05;10.70;99.90
36716;DHT22;22699;51.034;3.730;2023-04-24T04:22:35;10.60;99.90
36716;DHT22;22699;51.034;3.730;2023-04-24T04:25:03;10.50;99.90
36716;DHT22;22699;51.034;3.730;2023-04-24T04:27:30;10.50;99.90
36716;DHT22;22699;51.034;3.730;2023-04-24T04:30:01;10.50;99.90
36716;DHT22;22699;51.034;3.730;2023-04-24T04:32:31;10.40;99.90
36716;DHT22;22699;51.034;3.730;2023-04-24T04:35:00;10.50;99.90
36716;DHT22;22699;51.034;3.730;2023-04-24T04:37:29;10.40;99.90
36716;DHT22;22699;51.034;3.730;2023-04-24T04:39:54;10.50;99.90
36716;DHT22;22699;51.034;3.730;2023-04-24T04:42:20;10.50;99.90
36716;DHT22;22699;51.034;3.730;2023-04-24T04:45:03;10.50;99.90
36716;DHT22;22699;51.034;3.730;2023-04-24T04:47:39;10.50;99.90
36716;DHT22;22699;51.034;3.730;2023-04-24T04:50:07;10.60;99.90
36716;DHT22;22699;51.034;3.730;2023-04-24T04:52:32;10.70;99.90
36716;DHT22;22699;51.034;3.730;2023-04-24T04:54:58;10.70;99.90
36716;DHT22;22699;51.034;3.730;2023-04-24T04:57:27;10.60;99.90
36716;DHT22;22699;51.034;3.730;2023-04-24T04:59:53;10.60;99.90
36716;DHT22;22699;51.034;3.730;2023-04-24T05:02:19;10.60;99.90
36716;DHT22;22699;51.034;3.730;2023-04-24T05:04:44;10.60;99.90
36716;DHT22;22699;51.034;3.730;2023-04-24T05:07:11;10.40;99.90
36716;DHT22;22699;51.034;3.730;2023-04-24T05:09:36;10.30;99.90
36716;DHT22;22699;51.034;3.730;2023-04-24T05:12:03;10.40;99.90
36716;DHT22;22699;51.034;3.730;2023-04-24T05:14:29;10.40;99.90
36716;DHT22;22699;51.034;3.730;2023-04-24T05:17:18;10.60;99.90
36716;DHT22;22699;51.034;3.730;2023-04-24T05:19:44;10.60;99.90
36716;DHT22;22699;51.034;3.730;2023-04-24T05:22:10;10.40;99.90
36716;DHT22;22699;51.034;3.730;2023-04-24T05:24:42;10.40;99.90
36716;DHT22;22699;51.034;3.730;2023-04-24T05:27:11;10.20;99.90
36716;DHT22;22699;51.034;3.730;2023-04-24T05:29:38;10.10;99.90
36716;DHT22;22699;51.034;3.730;2023-04-24T05:32:04;10.10;99.90
36716;DHT22;22699;51.034;3.730;2023-04-24T05:34:31;10.30;99.90
36716;DHT22;22699;51.034;3.730;2023-04-24T05:36:59;10.20;99.90
36716;DHT22;22699;51.034;3.730;2023-04-24T05:39:26;10.20;99.90
36716;DHT22;22699;51.034;3.730;2023-04-24T05:41:51;10.40;99.90
36716;DHT22;22699;51.034;3.730;2023-04-24T05:44:17;10.40;99.90
36716;DHT22;22699;51.034;3.730;2023-04-24T05:46:43;10.00;99.90
36716;DHT22;22699;51.034;3.730;2023-04-24T05:49:09;10.20;99.90
36716;DHT22;22699;51.034;3.730;2023-04-24T05:51:34;10.20;99.90
36716;DHT22;22699;51.034;3.730;2023-04-24T05:54:02;10.20;99.90
36716;DHT22;22699;51.034;3.730;2023-04-24T05:56:28;10.20;99.90
36716;DHT22;22699;51.034;3.730;2023-04-24T05:58:55;10.30;99.90
36716;DHT22;22699;51.034;3.730;2023-04-24T06:01:24;10.20;99.90
36716;DHT22;22699;51.034;3.730;2023-04-24T06:03:50;10.30;99.90
36716;DHT22;22699;51.034;3.730;2023-04-24T06:06:16;10.30;99.90
36716;DHT22;22699;51.034;3.730;2023-04-24T06:08:42;10.30;99.90
36716;DHT22;22699;51.034;3.730;2023-04-24T06:11:11;10.40;99.90
36716;DHT22;22699;51.034;3.730;2023-04-24T06:13:37;10.60;99.90
36716;DHT22;22699;51.034;3.730;2023-04-24T06:16:03;10.60;99.90
36716;DHT22;22699;51.034;3.730;2023-04-24T06:18:29;10.40;99.90
36716;DHT22;22699;51.034;3.730;2023-04-24T06:20:54;10.60;99.90
36716;DHT22;22699;51.034;3.730;2023-04-24T06:23:20;10.70;99.90
36716;DHT22;22699;51.034;3.730;2023-04-24T06:25:47;10.90;99.90
36716;DHT22;22699;51.034;3.730;2023-04-24T06:28:14;10.80;99.90
36716;DHT22;22699;51.034;3.730;2023-04-24T06:30:39;11.00;99.90
36716;DHT22;22699;51.034;3.730;2023-04-24T06:33:07;11.10;99.90
36716;DHT22;22699;51.034;3.730;2023-04-24T06:35:33;11.40;99.90
36716;DHT22;22699;51.034;3.730;2023-04-24T06:37:58;11.80;99.90
36716;DHT22;22699;51.034;3.730;2023-04-24T06:40:25;11.80;99.90
36716;DHT22;22699;51.034;3.730;2023-04-24T06:42:52;11.90;99.90
36716;DHT22;22699;51.034;3.730;2023-04-24T06:45:19;11.70;99.90
36716;DHT22;22699;51.034;3.730;2023-04-24T06:47:44;11.60;99.90
36716;DHT22;22699;51.034;3.730;2023-04-24T06:50:11;11.30;99.90
36716;DHT22;22699;51.034;3.730;2023-04-24T06:52:37;11.10;99.90
36716;DHT22;22699;51.034;3.730;2023-04-24T06:55:04;11.10;99.90
36716;DHT22;22699;51.034;3.730;2023-04-24T06:57:30;11.40;99.90
36716;DHT22;22699;51.034;3.730;2023-04-24T06:59:56;11.70;99.90
36716;DHT22;22699;51.034;3.730;2023-04-24T07:02:23;11.80;99.90
36716;DHT22;22699;51.034;3.730;2023-04-24T07:04:50;12.10;99.90
36716;DHT22;22699;51.034;3.730;2023-04-24T07:07:16;12.30;99.90
36716;DHT22;22699;51.034;3.730;2023-04-24T07:09:43;12.30;99.90
36716;DHT22;22699;51.034;3.730;2023-04-24T07:12:11;12.50;99.90
36716;DHT22;22699;51.034;3.730;2023-04-24T07:14:38;12.60;99.90
36716;DHT22;22699;51.034;3.730;2023-04-24T07:17:05;12.50;99.90
36716;DHT22;22699;51.034;3.730;2023-04-24T07:19:34;12.40;99.90
36716;DHT22;22699;51.034;3.730;2023-04-24T07:22:01;12.60;99.90
36716;DHT22;22699;51.034;3.730;2023-04-24T07:24:26;12.60;99.90
36716;DHT22;22699;51.034;3.730;2023-04-24T07:26:53;12.50;99.90
36716;DHT22;22699;51.034;3.730;2023-04-24T07:29:19;12.70;99.90
36716;DHT22;22699;51.034;3.730;2023-04-24T07:31:45;12.70;99.90
36716;DHT22;22699;51.034;3.730;2023-04-24T07:34:11;12.70;99.90
36716;DHT22;22699;51.034;3.730;2023-04-24T07:36:36;12.50;99.90
36716;DHT22;22699;51.034;3.730;2023-04-24T07:39:04;12.50;99.90
36716;DHT22;22699;51.034;3.730;2023-04-24T07:41:31;12.40;99.90
36716;DHT22;22699;51.034;3.730;2023-04-24T07:43:58;12.10;99.90
36716;DHT22;22699;51.034;3.730;2023-04-24T07:46:31;12.10;99.90
36716;DHT22;22699;51.034;3.730;2023-04-24T07:48:57;12.00;99.90
36716;DHT22;22699;51.034;3.730;2023-04-24T07:51:24;12.00;99.90
36716;DHT22;22699;51.034;3.730;2023-04-24T07:53:53;12.10;99.90
36716;DHT22;22699;51.034;3.730;2023-04-24T07:56:22;12.40;99.90
36716;DHT22;22699;51.034;3.730;2023-04-24T07:58:55;12.90;99.90
36716;DHT22;22699;51.034;3.730;2023-04-24T08:01:28;13.30;99.90
36716;DHT22;22699;51.034;3.730;2023-04-24T08:03:53;14.10;99.90
36716;DHT22;22699;51.034;3.730;2023-04-24T08:06:19;16.00;99.90
36716;DHT22;22699;51.034;3.730;2023-04-24T08:08:45;20.00;99.90
36716;DHT22;22699;51.034;3.730;2023-04-24T08:11:11;24.30;93.70
36716;DHT22;22699;51.034;3.730;2023-04-24T08:13:37;26.00;73.70
36716;DHT22;22699;51.034;3.730;2023-04-24T08:16:03;25.20;68.60
36716;DHT22;22699;51.034;3.730;2023-04-24T08:18:31;23.20;70.50
36716;DHT22;22699;51.034;3.730;2023-04-24T08:20:58;21.30;73.10
36716;DHT22;22699;51.034;3.730;2023-04-24T08:23:29;19.30;77.60
36716;DHT22;22699;51.034;3.730;2023-04-24T08:26:00;19.30;81.80
36716;DHT22;22699;51.034;3.730;2023-04-24T08:28:26;21.30;75.50
36716;DHT22;22699;51.034;3.730;2023-04-24T08:30:51;24.10;71.00
36716;DHT22;22699;51.034;3.730;2023-04-24T08:33:21;25.60;65.50
36716;DHT22;22699;51.034;3.730;2023-04-24T08:35:47;25.70;62.00
36716;DHT22;22699;51.034;3.730;2023-04-24T08:38:15;24.70;64.40
36716;DHT22;22699;51.034;3.730;2023-04-24T08:40:41;25.40;60.70
36716;DHT22;22699;51.034;3.730;2023-04-24T08:43:10;27.30;59.70
36716;DHT22;22699;51.034;3.730;2023-04-24T08:45:40;26.70;58.10
36716;DHT22;22699;51.034;3.730;2023-04-24T08:48:07;25.20;59.30
36716;DHT22;22699;51.034;3.730;2023-04-24T08:50:36;23.20;61.70
36716;DHT22;22699;51.034;3.730;2023-04-24T08:53:02;21.10;65.80
36716;DHT22;22699;51.034;3.730;2023-04-24T08:55:33;20.00;67.80
36716;DHT22;22699;51.034;3.730;2023-04-24T08:58:00;18.80;71.00
36716;DHT22;22699;51.034;3.730;2023-04-24T09:00:27;18.00;73.40
36716;DHT22;22699;51.034;3.730;2023-04-24T09:02:53;16.90;75.10
36716;DHT22;22699;51.034;3.730;2023-04-24T09:05:35;16.30;78.40
36716;DHT22;22699;51.034;3.730;2023-04-24T09:08:07;16.50;79.10
36716;DHT22;22699;51.034;3.730;2023-04-24T09:10:37;16.70;77.70
36716;DHT22;22699;51.034;3.730;2023-04-24T09:13:06;16.30;78.70
36716;DHT22;22699;51.034;3.730;2023-04-24T09:15:45;15.80;80.70
36716;DHT22;22699;51.034;3.730;2023-04-24T09:18:11;15.50;82.50
36716;DHT22;22699;51.034;3.730;2023-04-24T09:21:06;15.40;84.50
36716;DHT22;22699;51.034;3.730;2023-04-24T09:23:36;15.20;84.80
36716;DHT22;22699;51.034;3.730;2023-04-24T09:26:05;15.00;85.20
36716;DHT22;22699;51.034;3.730;2023-04-24T09:28:40;15.00;85.80
36716;DHT22;22699;51.034;3.730;2023-04-24T09:31:14;15.20;84.60
36716;DHT22;22699;51.034;3.730;2023-04-24T09:34:05;15.50;86.10
36716;DHT22;22699;51.034;3.730;2023-04-24T09:36:40;15.90;85.10
36716;DHT22;22699;51.034;3.730;2023-04-24T09:39:14;15.80;84.40
36716;DHT22;22699;51.034;3.730;2023-04-24T09:41:54;16.70;82.50
36716;DHT22;22699;51.034;3.730;2023-04-24T09:44:26;16.70;80.40
36716;DHT22;22699;51.034;3.730;2023-04-24T09:46:57;17.30;80.80
36716;DHT22;22699;51.034;3.730;2023-04-24T09:49:30;17.30;78.10
36716;DHT22;22699;51.034;3.730;2023-04-24T09:52:09;17.50;77.20
36716;DHT22;22699;51.034;3.730;2023-04-24T09:54:39;18.00;79.70
36716;DHT22;22699;51.034;3.730;2023-04-24T09:57:08;18.70;75.50
36716;DHT22;22699;51.034;3.730;2023-04-24T09:59:42;18.40;74.10
36716;DHT22;22699;51.034;3.730;2023-04-24T10:02:18;18.00;74.70
36716;DHT22;22699;51.034;3.730;2023-04-24T10:04:55;17.70;75.40
36716;DHT22;22699;51.034;3.730;2023-04-24T10:07:21;17.40;75.90
36716;DHT22;22699;51.034;3.730;2023-04-24T10:09:48;17.30;77.70
36716;DHT22;22699;51.034;3.730;2023-04-24T10:12:16;16.90;76.70
36716;DHT22;22699;51.034;3.730;2023-04-24T10:14:45;16.60;78.20
36716;DHT22;22699;51.034;3.730;2023-04-24T10:17:11;16.20;79.60
36716;DHT22;22699;51.034;3.730;2023-04-24T10:19:41;15.60;79.60
36716;DHT22;22699;51.034;3.730;2023-04-24T10:22:08;15.20;81.40
36716;DHT22;22699;51.034;3.730;2023-04-24T10:24:33;15.00;81.60
36716;DHT22;22699;51.034;3.730;2023-04-24T10:27:02;14.80;82.30
36716;DHT22;22699;51.034;3.730;2023-04-24T10:29:31;14.90;83.40
36716;DHT22;22699;51.034;3.730;2023-04-24T10:31:58;15.30;83.60
36716;DHT22;22699;51.034;3.730;2023-04-24T10:34:25;15.60;82.50
36716;DHT22;22699;51.034;3.730;2023-04-24T10:36:56;15.50;82.20
36716;DHT22;22699;51.034;3.730;2023-04-24T10:39:25;15.60;81.80
36716;DHT22;22699;51.034;3.730;2023-04-24T10:41:51;15.70;82.40
36716;DHT22;22699;51.034;3.730;2023-04-24T10:44:16;15.80;81.30
36716;DHT22;22699;51.034;3.730;2023-04-24T10:46:46;16.10;80.20
36716;DHT22;22699;51.034;3.730;2023-04-24T10:49:28;16.20;79.40
36716;DHT22;22699;51.034;3.730;2023-04-24T10:51:54;16.30;80.80
36716;DHT22;22699;51.034;3.730;2023-04-24T10:56:53;16.00;81.00
36716;DHT22;22699;51.034;3.730;2023-04-24T10:59:27;16.30;78.80
36716;DHT22;22699;51.034;3.730;2023-04-24T11:02:02;16.50;78.90
36716;DHT22;22699;51.034;3.730;2023-04-24T11:04:32;16.20;79.20
36716;DHT22;22699;51.034;3.730;2023-04-24T11:07:04;16.30;79.20
36716;DHT22;22699;51.034;3.730;2023-04-24T11:09:33;16.00;79.00
36716;DHT22;22699;51.034;3.730;2023-04-24T11:12:09;16.10;79.90
36716;DHT22;22699;51.034;3.730;2023-04-24T11:14:59;15.90;80.80
36716;DHT22;22699;51.034;3.730;2023-04-24T11:17:55;15.90;80.30
36716;DHT22;22699;51.034;3.730;2023-04-24T11:20:31;15.80;79.40
36716;DHT22;22699;51.034;3.730;2023-04-24T11:23:03;15.70;81.40
36716;DHT22;22699;51.034;3.730;2023-04-24T11:25:31;15.40;81.60
36716;DHT22;22699;51.034;3.730;2023-04-24T11:28:05;15.00;81.60
36716;DHT22;22699;51.034;3.730;2023-04-24T11:30:35;14.90;82.00
36716;DHT22;22699;51.034;3.730;2023-04-24T11:33:07;15.20;81.80
36716;DHT22;22699;51.034;3.730;2023-04-24T11:35:40;15.50;81.20
36716;DHT22;22699;51.034;3.730;2023-04-24T11:38:06;15.90;79.30
36716;DHT22;22699;51.034;3.730;2023-04-24T11:40:33;15.70;79.10
36716;DHT22;22699;51.034;3.730;2023-04-24T11:43:06;15.50;79.40
36716;DHT22;22699;51.034;3.730;2023-04-24T11:45:51;15.50;79.60
36716;DHT22;22699;51.034;3.730;2023-04-24T11:48:23;15.50;80.60
36716;DHT22;22699;51.034;3.730;2023-04-24T11:50:48;15.30;81.30
36716;DHT22;22699;51.034;3.730;2023-04-24T11:53:14;15.50;81.50
36716;DHT22;22699;51.034;3.730;2023-04-24T11:55:40;15.30;80.80
36716;DHT22;22699;51.034;3.730;2023-04-24T11:58:08;15.50;80.40
36716;DHT22;22699;51.034;3.730;2023-04-24T12:00:35;15.80;79.40
36716;DHT22;22699;51.034;3.730;2023-04-24T12:03:10;15.90;77.90
36716;DHT22;22699;51.034;3.730;2023-04-24T12:05:37;16.10;77.80
36716;DHT22;22699;51.034;3.730;2023-04-24T12:08:03;16.20;78.30
36716;DHT22;22699;51.034;3.730;2023-04-24T12:10:31;16.20;76.60
36716;DHT22;22699;51.034;3.730;2023-04-24T12:12:59;16.20;76.70
36716;DHT22;22699;51.034;3.730;2023-04-24T12:15:26;16.30;77.00
36716;DHT22;22699;51.034;3.730;2023-04-24T12:17:54;16.10;76.90
36716;DHT22;22699;51.034;3.730;2023-04-24T12:20:31;15.80;77.70
36716;DHT22;22699;51.034;3.730;2023-04-24T12:22:58;16.30;76.90
36716;DHT22;22699;51.034;3.730;2023-04-24T12:25:28;16.50;75.70
36716;DHT22;22699;51.034;3.730;2023-04-24T12:28:12;16.50;76.10
36716;DHT22;22699;51.034;3.730;2023-04-24T12:30:49;16.40;76.90
36716;DHT22;22699;51.034;3.730;2023-04-24T12:33:23;16.40;77.40
36716;DHT22;22699;51.034;3.730;2023-04-24T12:35:53;16.50;76.40
36716;DHT22;22699;51.034;3.730;2023-04-24T12:38:23;16.70;75.80
36716;DHT22;22699;51.034;3.730;2023-04-24T12:41:00;16.90;75.10
36716;DHT22;22699;51.034;3.730;2023-04-24T12:43:26;17.00;74.90
36716;DHT22;22699;51.034;3.730;2023-04-24T12:45:54;17.00;74.90
36716;DHT22;22699;51.034;3.730;2023-04-24T12:48:19;17.20;73.90
36716;DHT22;22699;51.034;3.730;2023-04-24T12:50:46;16.70;75.70
36716;DHT22;22699;51.034;3.730;2023-04-24T12:53:14;16.50;75.40
36716;DHT22;22699;51.034;3.730;2023-04-24T12:55:41;16.40;75.90
36716;DHT22;22699;51.034;3.730;2023-04-24T12:58:06;16.30;74.50
36716;DHT22;22699;51.034;3.730;2023-04-24T13:00:33;15.90;75.90
36716;DHT22;22699;51.034;3.730;2023-04-24T13:03:01;15.70;76.40
36716;DHT22;22699;51.034;3.730;2023-04-24T13:05:28;15.80;76.40
36716;DHT22;22699;51.034;3.730;2023-04-24T13:07:57;15.70;76.10
36716;DHT22;22699;51.034;3.730;2023-04-24T13:10:23;15.50;76.80
36716;DHT22;22699;51.034;3.730;2023-04-24T13:12:49;15.40;78.10
36716;DHT22;22699;51.034;3.730;2023-04-24T13:15:15;15.30;77.10
36716;DHT22;22699;51.034;3.730;2023-04-24T13:17:42;15.10;76.50
36716;DHT22;22699;51.034;3.730;2023-04-24T13:20:08;15.10;76.70
36716;DHT22;22699;51.034;3.730;2023-04-24T13:22:36;15.20;77.00
36716;DHT22;22699;51.034;3.730;2023-04-24T13:25:02;15.00;77.80
36716;DHT22;22699;51.034;3.730;2023-04-24T13:27:27;14.80;79.50
36716;DHT22;22699;51.034;3.730;2023-04-24T13:29:57;14.90;79.10
36716;DHT22;22699;51.034;3.730;2023-04-24T13:32:24;14.80;77.60
36716;DHT22;22699;51.034;3.730;2023-04-24T13:34:50;14.70;78.40
36716;DHT22;22699;51.034;3.730;2023-04-24T13:37:17;14.90;78.20
36716;DHT22;22699;51.034;3.730;2023-04-24T13:39:44;14.90;77.60
36716;DHT22;22699;51.034;3.730;2023-04-24T13:42:14;14.80;78.20
36716;DHT22;22699;51.034;3.730;2023-04-24T13:44:42;14.80;78.80
36716;DHT22;22699;51.034;3.730;2023-04-24T13:47:12;14.70;79.10
36716;DHT22;22699;51.034;3.730;2023-04-24T13:49:39;14.90;79.50
36716;DHT22;22699;51.034;3.730;2023-04-24T13:52:08;15.00;79.40
36716;DHT22;22699;51.034;3.730;2023-04-24T13:54:35;15.20;78.20
36716;DHT22;22699;51.034;3.730;2023-04-24T13:57:01;15.30;77.90
36716;DHT22;22699;51.034;3.730;2023-04-24T13:59:35;15.40;77.80
36716;DHT22;22699;51.034;3.730;2023-04-24T14:02:01;15.70;77.20
36716;DHT22;22699;51.034;3.730;2023-04-24T14:04:26;15.70;75.70
36716;DHT22;22699;51.034;3.730;2023-04-24T14:06:53;15.80;75.50
36716;DHT22;22699;51.034;3.730;2023-04-24T14:09:19;15.80;76.00
36716;DHT22;22699;51.034;3.730;2023-04-24T14:11:45;15.50;76.90
36716;DHT22;22699;51.034;3.730;2023-04-24T14:14:10;15.30;76.30
36716;DHT22;22699;51.034;3.730;2023-04-24T14:16:36;15.00;76.10
36716;DHT22;22699;51.034;3.730;2023-04-24T14:19:03;14.90;76.10
36716;DHT22;22699;51.034;3.730;2023-04-24T14:21:31;15.00;76.70
36716;DHT22;22699;51.034;3.730;2023-04-24T14:23:57;15.40;75.80
36716;DHT22;22699;51.034;3.730;2023-04-24T14:26:23;15.50;75.40
36716;DHT22;22699;51.034;3.730;2023-04-24T14:28:50;15.60;75.90
36716;DHT22;22699;51.034;3.730;2023-04-24T14:31:17;15.80;76.20
36716;DHT22;22699;51.034;3.730;2023-04-24T14:33:42;15.80;75.80
36716;DHT22;22699;51.034;3.730;2023-04-24T14:36:08;15.70;76.00
36716;DHT22;22699;51.034;3.730;2023-04-24T14:38:35;15.50;76.10
36716;DHT22;22699;51.034;3.730;2023-04-24T14:41:00;15.50;75.20
36716;DHT22;22699;51.034;3.730;2023-04-24T14:43:27;15.90;73.40
36716;DHT22;22699;51.034;3.730;2023-04-24T14:45:54;16.10;72.60
36716;DHT22;22699;51.034;3.730;2023-04-24T14:48:20;16.20;73.50
36716;DHT22;22699;51.034;3.730;2023-04-24T14:50:45;16.30;72.40
36716;DHT22;22699;51.034;3.730;2023-04-24T14:53:14;16.40;72.30
36716;DHT22;22699;51.034;3.730;2023-04-24T14:55:42;16.10;73.10
36716;DHT22;22699;51.034;3.730;2023-04-24T14:58:08;16.10;73.20
36716;DHT22;22699;51.034;3.730;2023-04-24T15:00:35;16.10;73.40
36716;DHT22;22699;51.034;3.730;2023-04-24T15:03:01;16.20;73.40
36716;DHT22;22699;51.034;3.730;2023-04-24T15:05:28;16.20;73.90
36716;DHT22;22699;51.034;3.730;2023-04-24T15:07:56;16.30;73.30
36716;DHT22;22699;51.034;3.730;2023-04-24T15:10:21;16.50;73.20
36716;DHT22;22699;51.034;3.730;2023-04-24T15:12:48;16.50;72.50
36716;DHT22;22699;51.034;3.730;2023-04-24T15:15:14;16.20;73.60
36716;DHT22;22699;51.034;3.730;2023-04-24T15:17:40;16.30;73.80
36716;DHT22;22699;51.034;3.730;2023-04-24T15:20:10;16.30;73.50
36716;DHT22;22699;51.034;3.730;2023-04-24T15:22:38;16.60;74.00
36716;DHT22;22699;51.034;3.730;2023-04-24T15:25:05;16.80;71.60
36716;DHT22;22699;51.034;3.730;2023-04-24T15:27:42;16.70;70.50
36716;DHT22;22699;51.034;3.730;2023-04-24T15:30:08;16.50;70.50
36716;DHT22;22699;51.034;3.730;2023-04-24T15:32:34;16.40;71.70
36716;DHT22;22699;51.034;3.730;2023-04-24T15:35:00;16.40;71.20
36716;DHT22;22699;51.034;3.730;2023-04-24T15:37:27;16.40;70.50
36716;DHT22;22699;51.034;3.730;2023-04-24T15:39:52;16.40;70.20